Time;durP1;ratioP1;P1;durP2;ratioP2;P2;SDS_P1;SDS_P2;PMS_P1;PMS_P2;Temp;Humidity;BMP_temperature;BMP_pressure;BME280_temperature;BME280_humidity;BME280_pressure;Samples;Min_cycle;Max_cycle;Signal;HPM_P1;HPM_P2
2022/09/19 00:00:30;;;;;;;;;;;;;;;16.79;47.89;100661.19;5073037;28;1167;-62
2022/09/19 00:02:56;;;;;;;;;;;;;;;16.80;46.83;100675.75;5079107;28;1123;-62
2022/09/19 00:05:22;;;;;;;;;;;;;;;17.33;47.62;100675.34;5079292;28;1186;-62
2022/09/19 00:07:47;;;;;;;;;;;;;;;17.05;48.33;100672.94;5078885;28;1902;-62
2022/09/19 00:10:13;;;;;;;;;;;;;;;16.95;47.65;100683.16;5078585;28;1159;-65
2022/09/19 00:12:38;;;;;;;;;;;;;;;16.75;47.22;100682.88;5075103;28;888;-65
2022/09/19 00:15:04;;;;;;;;;;;;;;;17.75;47.44;100674.03;5078768;28;1174;-65
2022/09/19 00:17:29;;;;;;;;;;;;;;;17.04;48.09;100671.31;5078630;28;1116;-65
2022/09/19 00:19:55;;;;;;;;;;;;;;;16.90;47.70;100676.59;5078837;28;1120;-65
2022/09/19 00:22:20;;;;;;;;;;;;;;;16.77;46.97;100686.19;5078617;28;1155;-65
2022/09/19 00:24:46;;;;;;;;;;;;;;;17.73;47.38;100685.31;5076153;28;934;-65
2022/09/19 00:27:32;;;;;;;;;;;;;;;17.10;47.89;100689.44;5079236;28;1902;-65
2022/09/19 00:29:58;;;;;;;;;;;;;;;16.93;47.26;100695.25;5060503;28;1805;-65
2022/09/19 00:32:23;;;;;;;;;;;;;;;16.89;46.50;100704.31;5078478;28;1127;-65
2022/09/19 00:34:49;;;;;;;;;;;;;;;17.42;47.88;100704.72;5069358;28;1626;-66
2022/09/19 00:37:15;;;;;;;;;;;;;;;17.10;47.56;100708.66;5072139;28;896;-66
2022/09/19 00:39:41;;;;;;;;;;;;;;;16.91;46.99;100710.34;5078295;28;1076;-67
2022/09/19 00:42:17;;;;;;;;;;;;;;;18.12;47.05;100714.03;5073655;28;1002;-65
2022/09/19 00:44:43;;;;;;;;;;;;;;;17.30;47.97;100712.44;5078706;28;1167;-64
2022/09/19 00:47:10;;;;;;;;;;;;;;;17.12;47.13;100707.56;5078367;28;1988;-63
2022/09/19 00:49:39;;;;;;;;;;;;;;;16.92;46.84;100706.50;5075367;28;933;-63
2022/09/19 00:52:05;;;;;;;;;;;;;;;16.93;46.29;100689.75;5060977;28;1195;-63
2022/09/19 00:54:32;;;;;;;;;;;;;;;17.60;47.21;100685.97;5060013;28;1100;-63
2022/09/19 00:56:58;;;;;;;;;;;;;;;17.22;47.92;100689.13;5078326;28;1279;-60
2022/09/19 00:59:25;;;;;;;;;;;;;;;17.02;47.39;100684.50;5078573;28;1198;-63
2022/09/19 01:01:51;;;;;;;;;;;;;;;16.92;46.74;100690.03;5076145;28;891;-63
2022/09/19 01:04:28;;;;;;;;;;;;;;;16.80;46.39;100695.78;5060750;28;1215;-62
2022/09/19 01:07:13;;;;;;;;;;;;;;;17.75;46.96;100688.63;5078664;28;1166;-63
2022/09/19 01:09:47;;;;;;;;;;;;;;;17.05;47.49;100686.69;5078170;28;1396;-62
2022/09/19 01:12:17;;;;;;;;;;;;;;;16.97;46.81;100687.28;5059538;28;1578;-62
2022/09/19 01:14:54;;;;;;;;;;;;;;;17.57;47.44;100683.75;5039564;28;1191;-65
2022/09/19 01:17:25;;;;;;;;;;;;;;;17.51;47.77;100682.94;5057554;28;1929;-65
2022/09/19 01:19:54;;;;;;;;;;;;;;;17.18;47.56;100682.56;5060074;28;1194;-66
2022/09/19 01:22:23;;;;;;;;;;;;;;;16.98;47.02;100677.09;5059540;28;1250;-65
2022/09/19 01:25:00;;;;;;;;;;;;;;;16.83;46.40;100683.41;5052525;28;1156;-62
2022/09/19 01:27:33;;;;;;;;;;;;;;;16.86;46.05;100682.88;5056829;28;1902;-63
2022/09/19 01:29:59;;;;;;;;;;;;;;;17.99;46.65;100684.38;5059561;28;1143;-64
2022/09/19 01:32:26;;;;;;;;;;;;;;;17.17;47.53;100685.59;5059626;28;1247;-63
2022/09/19 01:34:53;;;;;;;;;;;;;;;17.04;47.03;100686.97;5043303;28;1112;-63
2022/09/19 01:37:22;;;;;;;;;;;;;;;16.89;46.27;100685.91;5031979;28;1311;-63
2022/09/19 01:39:49;;;;;;;;;;;;;;;16.88;46.03;100683.41;5059458;28;1206;-64
2022/09/19 01:42:19;;;;;;;;;;;;;;;16.81;45.67;100682.88;5059944;28;1223;-63
2022/09/19 01:44:44;;;;;;;;;;;;;;;16.69;45.32;100681.25;5059357;28;1136;-63
2022/09/19 01:47:29;;;;;;;;;;;;;;;16.65;45.12;100680.16;5059527;28;1980;-63
2022/09/19 01:50:06;;;;;;;;;;;;;;;17.51;46.46;100690.41;5046072;28;1175;-64
2022/09/19 01:52:53;;;;;;;;;;;;;;;17.07;46.58;100692.75;5059133;28;2232;-63
2022/09/19 01:55:31;;;;;;;;;;;;;;;16.85;46.02;100689.47;5059139;28;1867;-63
2022/09/19 01:58:07;;;;;;;;;;;;;;;17.74;46.39;100686.97;5049965;28;1258;-63
2022/09/19 02:00:38;;;;;;;;;;;;;;;17.04;47.34;100695.22;5019592;28;1172;-63
2022/09/19 02:03:41;;;;;;;;;;;;;;;16.82;47.04;100695.53;5031413;28;1195;-65
2022/09/19 02:06:08;;;;;;;;;;;;;;;17.38;47.78;100698.13;4959077;28;1353;-64
2022/09/19 02:08:38;;;;;;;;;;;;;;;17.07;47.30;100698.25;4958083;28;2377;-63
2022/09/19 02:11:11;;;;;;;;;;;;;;;16.90;46.82;100692.22;4997715;28;1233;-64
2022/09/19 02:13:43;;;;;;;;;;;;;;;17.94;47.17;100699.00;5012476;28;1190;-65
2022/09/19 02:16:14;;;;;;;;;;;;;;;17.50;47.70;100696.97;5039971;28;1179;-64
2022/09/19 02:18:49;;;;;;;;;;;;;;;17.15;47.36;100696.81;5056766;28;1128;-64
2022/09/19 02:21:20;;;;;;;;;;;;;;;16.96;46.79;100704.00;5022679;28;1167;-64
2022/09/19 02:23:47;;;;;;;;;;;;;;;17.80;47.49;100698.78;5039549;28;1171;-64
2022/09/19 02:26:13;;;;;;;;;;;;;;;17.13;47.90;100703.72;5030225;28;1123;-64
2022/09/19 02:28:43;;;;;;;;;;;;;;;17.03;47.09;100702.63;5022563;28;1894;-64
2022/09/19 02:31:13;;;;;;;;;;;;;;;16.91;46.30;100704.84;5038867;28;1221;-64
2022/09/19 02:33:39;;;;;;;;;;;;;;;16.83;45.83;100713.63;5039058;28;1195;-64
2022/09/19 02:36:07;;;;;;;;;;;;;;;16.90;45.43;100719.69;5038370;28;1459;-64
2022/09/19 02:38:35;;;;;;;;;;;;;;;17.93;46.53;100714.66;5031829;28;908;-63
2022/09/19 02:41:19;;;;;;;;;;;;;;;17.20;47.09;100718.81;5038624;28;1192;-64
2022/09/19 02:43:46;;;;;;;;;;;;;;;16.90;46.92;100730.66;5022337;28;1211;-64
2022/09/19 02:46:24;;;;;;;;;;;;;;;17.75;46.98;100726.28;5021801;28;1269;-64
2022/09/19 02:48:52;;;;;;;;;;;;;;;17.06;47.23;100732.28;5023028;28;1898;-64
2022/09/19 02:51:30;;;;;;;;;;;;;;;16.95;46.88;100735.34;5031880;28;1145;-64
2022/09/19 02:54:17;;;;;;;;;;;;;;;16.88;46.07;100735.59;5038349;28;1725;-63
2022/09/19 02:56:43;;;;;;;;;;;;;;;16.87;45.20;100733.94;5037952;28;1241;-65
2022/09/19 02:59:20;;;;;;;;;;;;;;;17.02;46.05;100735.88;5021688;28;1154;-64
2022/09/19 03:01:54;;;;;;;;;;;;;;;17.18;46.83;100729.25;5030539;28;1200;-66
2022/09/19 03:04:21;;;;;;;;;;;;;;;16.86;46.73;100737.81;5014027;28;1290;-65
2022/09/19 03:07:27;;;;;;;;;;;;;;;16.76;46.07;100742.19;5049815;28;962;-63
2022/09/19 03:10:12;;;;;;;;;;;;;;;17.34;47.11;100742.97;4959308;28;1286;-64
2022/09/19 03:13:01;;;;;;;;;;;;;;;16.90;46.78;100752.66;5039730;28;1404;-65
2022/09/19 03:15:47;;;;;;;;;;;;;;;17.68;47.30;100745.03;5038243;28;1216;-64
2022/09/19 03:18:14;;;;;;;;;;;;;;;17.42;47.71;100751.44;5042067;28;1323;-64
2022/09/19 03:20:40;;;;;;;;;;;;;;;17.09;47.35;100750.16;5042243;28;1136;-64
2022/09/19 03:23:08;;;;;;;;;;;;;;;17.03;46.42;100745.78;5026272;28;1299;-64
2022/09/19 03:25:34;;;;;;;;;;;;;;;17.72;47.11;100741.41;5037542;28;1237;-64
2022/09/19 03:28:00;;;;;;;;;;;;;;;17.64;47.90;100744.75;5032440;28;1965;-65
2022/09/19 03:30:26;;;;;;;;;;;;;;;17.20;47.68;100742.72;5038395;28;1357;-63
2022/09/19 03:32:51;;;;;;;;;;;;;;;17.12;46.63;100737.78;5014570;28;1152;-66
2022/09/19 03:35:17;;;;;;;;;;;;;;;16.96;46.75;100732.31;5052070;28;1073;-65
2022/09/19 03:37:45;;;;;;;;;;;;;;;16.89;46.08;100738.09;5039387;28;1167;-66
2022/09/19 03:40:11;;;;;;;;;;;;;;;16.81;45.73;100726.81;5041831;28;1170;-66
2022/09/19 03:42:37;;;;;;;;;;;;;;;16.73;45.79;100729.03;5041812;28;1318;-64
2022/09/19 03:45:06;;;;;;;;;;;;;;;18.00;46.75;100730.03;5034764;28;1375;-63
2022/09/19 03:47:33;;;;;;;;;;;;;;;17.15;47.72;100742.72;5032768;28;1898;-66
2022/09/19 03:49:59;;;;;;;;;;;;;;;16.96;47.25;100746.06;5028209;28;1286;-65
2022/09/19 03:52:27;;;;;;;;;;;;;;;18.00;47.20;100747.38;5037045;28;1307;-67
2022/09/19 03:54:54;;;;;;;;;;;;;;;17.22;47.88;100749.59;5026729;28;1467;-66
2022/09/19 03:57:20;;;;;;;;;;;;;;;17.06;47.24;100754.28;5040933;28;1348;-66
2022/09/19 03:59:45;;;;;;;;;;;;;;;17.00;46.37;100752.66;5032612;28;1305;-68
2022/09/19 04:02:12;;;;;;;;;;;;;;;18.16;47.15;100750.03;5041095;28;1087;-66
2022/09/19 04:04:38;;;;;;;;;;;;;;;17.39;47.64;100743.75;5040535;28;1167;-62
2022/09/19 04:07:04;;;;;;;;;;;;;;;17.10;47.67;100743.56;5041114;28;1312;-63
2022/09/19 04:09:30;;;;;;;;;;;;;;;16.88;47.07;100743.84;5041036;28;1902;-63
2022/09/19 04:11:59;;;;;;;;;;;;;;;17.57;47.99;100742.34;5041059;28;1294;-62
2022/09/19 04:14:26;;;;;;;;;;;;;;;17.19;47.94;100736.38;5039990;28;1417;-60
2022/09/19 04:16:52;;;;;;;;;;;;;;;17.10;47.04;100743.56;5041346;28;1532;-62
2022/09/19 04:19:18;;;;;;;;;;;;;;;16.91;46.55;100743.31;5040872;28;1310;-62
2022/09/19 04:22:10;;;;;;;;;;;;;;;17.52;47.43;100738.78;5008362;28;1209;-62
2022/09/19 04:24:46;;;;;;;;;;;;;;;17.15;47.30;100735.28;5027301;28;1207;-58
2022/09/19 04:27:17;;;;;;;;;;;;;;;16.98;46.80;100730.13;5027823;28;1913;-59
2022/09/19 04:29:43;;;;;;;;;;;;;;;17.71;47.11;100726.03;5038662;28;1616;-58
2022/09/19 04:32:09;;;;;;;;;;;;;;;17.10;47.53;100736.13;5058453;28;1206;-58
2022/09/19 04:34:35;;;;;;;;;;;;;;;17.03;46.91;100741.09;5040529;28;1140;-58
2022/09/19 04:37:06;;;;;;;;;;;;;;;16.87;46.61;100739.44;5040852;28;1261;-58
2022/09/19 04:39:32;;;;;;;;;;;;;;;16.85;45.96;100752.63;5040181;28;1198;-58
2022/09/19 04:42:00;;;;;;;;;;;;;;;16.73;45.57;100753.75;5040418;28;1187;-58
2022/09/19 04:44:27;;;;;;;;;;;;;;;18.01;46.55;100753.72;5040390;28;1561;-59
2022/09/19 04:47:12;;;;;;;;;;;;;;;17.21;47.26;100758.94;5028033;28;1969;-58
2022/09/19 04:49:39;;;;;;;;;;;;;;;17.09;46.36;100770.19;5058018;28;1187;-59
2022/09/19 04:52:06;;;;;;;;;;;;;;;16.91;46.36;100765.28;5034794;28;1218;-59
2022/09/19 04:54:35;;;;;;;;;;;;;;;16.85;45.82;100763.63;5032543;28;1235;-58
2022/09/19 04:57:05;;;;;;;;;;;;;;;17.86;46.87;100762.81;5058808;28;1199;-58
2022/09/19 04:59:33;;;;;;;;;;;;;;;17.19;47.24;100771.28;5060160;28;1198;-58
2022/09/19 05:02:00;;;;;;;;;;;;;;;17.02;47.23;100761.41;5059777;28;1258;-58
2022/09/19 05:04:26;;;;;;;;;;;;;;;17.65;47.73;100762.91;5078194;28;1163;-58
2022/09/19 05:06:54;;;;;;;;;;;;;;;17.16;47.54;100763.63;5078163;28;1218;-57
2022/09/19 05:09:24;;;;;;;;;;;;;;;17.93;47.53;100758.69;5060016;28;1910;-57
2022/09/19 05:12:03;;;;;;;;;;;;;;;17.38;47.72;100764.09;5059885;28;1190;-57
2022/09/19 05:14:31;;;;;;;;;;;;;;;17.15;46.98;100770.19;5054613;28;1496;-57
2022/09/19 05:17:00;;;;;;;;;;;;;;;16.97;46.53;100764.19;5054732;28;1266;-57
2022/09/19 05:19:26;;;;;;;;;;;;;;;16.86;46.22;100757.03;5059629;28;1216;-57
2022/09/19 05:21:54;;;;;;;;;;;;;;;17.94;46.72;100757.56;5059869;28;1235;-57
2022/09/19 05:24:19;;;;;;;;;;;;;;;17.29;47.24;100760.25;5059831;28;1230;-57
2022/09/19 05:26:45;;;;;;;;;;;;;;;17.07;46.97;100758.69;5059357;28;1291;-57
2022/09/19 05:29:14;;;;;;;;;;;;;;;16.94;46.50;100764.72;5059702;28;1981;-57
2022/09/19 05:32:02;;;;;;;;;;;;;;;16.88;46.22;100765.81;5059483;28;1237;-57
2022/09/19 05:34:45;;;;;;;;;;;;;;;17.79;46.56;100776.88;5059310;28;1261;-57
2022/09/19 05:37:31;;;;;;;;;;;;;;;17.17;47.04;100765.25;5076959;28;1195;-57
2022/09/19 05:40:11;;;;;;;;;;;;;;;17.57;46.33;100763.47;5058208;28;1301;-58
2022/09/19 05:43:02;;;;;;;;;;;;;;;17.83;46.29;100764.22;5053264;28;1236;-57
2022/09/19 05:45:29;;;;;;;;;;;;;;;17.42;47.70;100765.19;5059406;28;1266;-57
2022/09/19 05:48:01;;;;;;;;;;;;;;;17.26;48.16;100767.16;5059345;28;1909;-57
2022/09/19 05:50:27;;;;;;;;;;;;;;;17.10;48.72;100762.81;5045007;28;1281;-58
2022/09/19 05:55:37;;;;;;;;;;;;;;;16.91;49.38;100768.03;5039345;28;1316;-60
2022/09/19 05:58:17;;;;;;;;;;;;;;;16.79;50.00;100768.28;5071477;28;1275;-61
2022/09/19 06:00:42;;;;;;;;;;;;;;;16.75;50.17;100772.69;5059215;28;1167;-62
2022/09/19 06:03:09;;;;;;;;;;;;;;;16.69;50.50;100776.50;5058441;28;1195;-63
2022/09/19 06:05:39;;;;;;;;;;;;;;;16.60;50.54;100774.31;5059156;28;1262;-60
2022/09/19 06:08:07;;;;;;;;;;;;;;;16.56;50.96;100769.66;5058981;28;1905;-61
2022/09/19 06:10:33;;;;;;;;;;;;;;;16.50;50.98;100770.75;5076469;28;1116;-59
2022/09/19 06:12:58;;;;;;;;;;;;;;;16.47;51.24;100771.31;5076728;28;1108;-59
2022/09/19 06:15:24;;;;;;;;;;;;;;;16.40;51.49;100768.81;5049690;28;1179;-60
2022/09/19 06:17:54;;;;;;;;;;;;;;;16.34;51.62;100762.50;5058656;28;1223;-61
2022/09/19 06:20:36;;;;;;;;;;;;;;;16.25;51.88;100764.13;5076652;28;1162;-59
2022/09/19 06:23:08;;;;;;;;;;;;;;;16.23;51.92;100766.34;5076459;28;1124;-59
2022/09/19 06:25:34;;;;;;;;;;;;;;;16.19;52.06;100777.00;5058385;28;1234;-59
2022/09/19 06:28:00;;;;;;;;;;;;;;;16.14;52.25;100773.44;5068992;28;1985;-60
2022/09/19 06:30:26;;;;;;;;;;;;;;;16.06;52.33;100769.28;5043595;28;1120;-60
2022/09/19 06:33:01;;;;;;;;;;;;;;;16.09;52.41;100777.00;5075927;28;1118;-60
2022/09/19 06:35:42;;;;;;;;;;;;;;;17.51;49.33;100773.69;5076425;28;1104;-63
2022/09/19 06:38:09;;;;;;;;;;;;;;;16.76;51.36;100763.34;5058470;28;1270;-65
2022/09/19 06:40:38;;;;;;;;;;;;;;;16.51;52.24;100778.72;5058044;28;1222;-63
2022/09/19 06:43:26;;;;;;;;;;;;;;;16.38;52.46;100780.06;5058415;28;1155;-61
2022/09/19 06:46:30;;;;;;;;;;;;;;;16.22;52.93;100775.66;4975660;28;1203;-62
2022/09/19 06:49:07;;;;;;;;;;;;;;;16.56;52.32;100783.38;4975301;28;1914;-63
2022/09/19 06:51:56;;;;;;;;;;;;;;;17.27;50.46;100778.97;5037956;28;1257;-64
2022/09/19 06:54:22;;;;;;;;;;;;;;;16.70;52.11;100781.72;5057968;28;1943;-62
2022/09/19 06:56:49;;;;;;;;;;;;;;;16.52;52.54;100785.84;5058457;28;1166;-63
2022/09/19 06:59:17;;;;;;;;;;;;;;;16.38;52.95;100779.22;5058139;28;1342;-65
2022/09/19 07:01:42;;;;;;;;;;;;;;;16.35;53.00;100786.09;5058255;28;1203;-63
2022/09/19 07:04:08;;;;;;;;;;;;;;;16.25;53.50;100784.13;5057327;28;1379;-63
2022/09/19 07:06:57;;;;;;;;;;;;;;;16.31;53.43;100787.72;5075379;28;1279;-61
2022/09/19 07:09:23;;;;;;;;;;;;;;;17.54;50.54;100780.53;5057683;28;1913;-65
2022/09/19 07:11:51;;;;;;;;;;;;;;;16.76;52.54;100783.38;5058004;28;1201;-61
2022/09/19 07:14:16;;;;;;;;;;;;;;;16.55;53.09;100789.97;5057900;28;1308;-64
2022/09/19 07:16:42;;;;;;;;;;;;;;;16.39;53.30;100792.69;5057694;28;1158;-68
2022/09/19 07:19:07;;;;;;;;;;;;;;;16.31;53.90;100787.72;5057718;28;1314;-64
2022/09/19 07:21:53;;;;;;;;;;;;;;;16.23;53.81;100788.28;5057906;28;1258;-62
2022/09/19 07:24:39;;;;;;;;;;;;;;;16.16;53.96;100787.69;5034149;28;1056;-61
2022/09/19 07:27:25;;;;;;;;;;;;;;;16.91;52.51;100782.59;5054154;28;1901;-63
2022/09/19 07:29:50;;;;;;;;;;;;;;;17.15;52.02;100781.19;5058000;28;1272;-61
2022/09/19 07:32:16;;;;;;;;;;;;;;;16.64;53.29;100780.09;5057903;28;1613;-64
2022/09/19 07:34:43;;;;;;;;;;;;;;;16.47;53.76;100779.53;5057652;28;1149;-62
2022/09/19 07:37:09;;;;;;;;;;;;;;;16.34;54.29;100784.47;5058046;28;1200;-63
2022/09/19 07:39:34;;;;;;;;;;;;;;;16.28;54.17;100790.19;5055547;28;1201;-64
2022/09/19 07:42:16;;;;;;;;;;;;;;;16.24;54.52;100785.25;5057842;28;1453;-64
2022/09/19 07:45:16;;;;;;;;;;;;;;;17.55;51.20;100773.94;5019926;28;1096;-66
2022/09/19 07:47:56;;;;;;;;;;;;;;;16.77;53.61;100787.78;5057601;28;1979;-62
2022/09/19 07:50:43;;;;;;;;;;;;;;;16.54;53.93;100782.84;5075385;28;1010;-63
2022/09/19 07:53:18;;;;;;;;;;;;;;;16.45;54.05;100779.78;5053599;28;1094;-67
2022/09/19 07:55:48;;;;;;;;;;;;;;;16.33;54.43;100782.81;5057488;28;1365;-57
2022/09/19 07:58:14;;;;;;;;;;;;;;;16.25;54.34;100784.13;5057339;28;1252;-63
2022/09/19 08:00:46;;;;;;;;;;;;;;;16.20;54.44;100783.31;5057567;28;1513;-65
2022/09/19 08:03:24;;;;;;;;;;;;;;;16.16;54.63;100777.56;5054106;28;1216;-63
2022/09/19 08:05:50;;;;;;;;;;;;;;;18.26;50.79;100766.50;5053332;28;2172;-61
2022/09/19 08:08:16;;;;;;;;;;;;;;;17.94;53.84;100759.53;5077836;28;1902;-64
2022/09/19 08:10:42;;;;;;;;;;;;;;;17.29;53.59;100760.25;5056834;28;2201;-65
2022/09/19 08:13:08;;;;;;;;;;;;;;;17.09;52.76;100756.47;5055990;28;2082;-61
2022/09/19 08:15:34;;;;;;;;;;;;;;;18.54;49.03;100755.84;5050512;28;2312;-63
2022/09/19 08:18:01;;;;;;;;;;;;;;;15.70;59.45;100764.47;5055925;28;2086;-61
2022/09/19 08:20:29;;;;;;;;;;;;;;;16.24;55.15;100755.09;5049108;28;1836;-63
2022/09/19 08:22:58;;;;;;;;;;;;;;;16.72;51.64;100760.31;5060532;28;2123;-59
2022/09/19 08:25:24;;;;;;;;;;;;;;;16.64;50.39;100751.81;5051503;28;2056;-59
2022/09/19 08:27:52;;;;;;;;;;;;;;;16.59;49.20;100755.38;5054807;28;1901;-59
2022/09/19 08:30:18;;;;;;;;;;;;;;;16.58;48.59;100732.59;5059707;28;1180;-58
2022/09/19 08:32:44;;;;;;;;;;;;;;;16.55;48.00;100741.38;5051176;28;1144;-62
2022/09/19 08:35:10;;;;;;;;;;;;;;;16.50;47.66;100743.31;5058717;28;1247;-60
2022/09/19 08:37:36;;;;;;;;;;;;;;;17.45;50.39;100741.81;5077563;28;1104;-60
2022/09/19 08:40:18;;;;;;;;;;;;;;;16.90;50.21;100741.66;5053813;28;1256;-61
2022/09/19 08:42:48;;;;;;;;;;;;;;;16.78;49.17;100739.19;5059100;28;1947;-62
2022/09/19 08:45:20;;;;;;;;;;;;;;;16.67;48.53;100743.84;5060210;28;1182;-61
2022/09/19 08:47:45;;;;;;;;;;;;;;;16.65;48.18;100740.56;5059620;28;1977;-64
2022/09/19 08:50:13;;;;;;;;;;;;;;;16.59;47.60;100747.13;5040076;28;1155;-61
2022/09/19 08:52:44;;;;;;;;;;;;;;;16.54;47.31;100738.91;5055906;28;1370;-61
2022/09/19 08:55:25;;;;;;;;;;;;;;;16.66;47.56;100741.38;5060184;28;1191;-61
2022/09/19 08:57:53;;;;;;;;;;;;;;;16.99;49.22;100737.25;5059347;28;1262;-62
2022/09/19 09:00:20;;;;;;;;;;;;;;;16.87;48.52;100723.81;5059882;28;1331;-59
2022/09/19 09:02:51;;;;;;;;;;;;;;;16.54;48.28;100728.75;5059825;28;1306;-59
2022/09/19 09:05:46;;;;;;;;;;;;;;;17.18;48.68;100723.78;5057157;28;1080;-59
2022/09/19 09:08:19;;;;;;;;;;;;;;;16.93;49.03;100722.72;5031627;28;1993;-61
2022/09/19 09:11:07;;;;;;;;;;;;;;;16.82;48.08;100721.06;5076159;28;1195;-60
2022/09/19 09:13:36;;;;;;;;;;;;;;;17.73;48.89;100723.81;5077959;28;1140;-61
2022/09/19 09:16:04;;;;;;;;;;;;;;;17.20;49.51;100713.31;5058287;28;1104;-63
2022/09/19 09:18:48;;;;;;;;;;;;;;;16.97;48.63;100713.91;5059281;28;1185;-61
2022/09/19 09:21:17;;;;;;;;;;;;;;;16.80;48.16;100706.75;5059208;28;1297;-63
2022/09/19 09:23:45;;;;;;;;;;;;;;;16.80;47.34;100703.19;5039188;28;1172;-62
2022/09/19 09:26:38;;;;;;;;;;;;;;;17.71;48.23;100694.97;5058525;28;1133;-61
2022/09/19 09:29:12;;;;;;;;;;;;;;;17.35;49.28;100704.19;5056467;28;1922;-63
2022/09/19 09:31:57;;;;;;;;;;;;;;;17.10;48.39;100696.84;5044387;28;1186;-62
2022/09/19 09:34:30;;;;;;;;;;;;;;;17.72;49.39;100691.91;5030716;28;1235;-64
2022/09/19 09:37:11;;;;;;;;;;;;;;;17.22;49.21;100688.28;5044638;28;1278;-63
2022/09/19 09:39:50;;;;;;;;;;;;;;;17.13;48.42;100690.00;5057000;28;1235;-61
2022/09/19 09:42:21;;;;;;;;;;;;;;;16.97;47.71;100684.53;5029884;28;1239;-63
2022/09/19 09:44:47;;;;;;;;;;;;;;;17.03;47.05;100682.59;5072294;28;1207;-62
2022/09/19 09:47:25;;;;;;;;;;;;;;;16.83;46.94;100680.66;5059165;28;1170;-64
2022/09/19 09:49:52;;;;;;;;;;;;;;;16.86;46.40;100680.94;5058412;28;1246;-69
2022/09/19 09:52:39;;;;;;;;;;;;;;;16.83;46.39;100677.91;5054936;28;1278;-63
2022/09/19 09:57:59;;;;;;;;;;;;;;;17.17;48.09;100669.09;5058522;28;1358;-59
2022/09/19 10:03:36;;;;;;;;;;;;;;;17.41;48.37;100670.06;5045475;28;1101;-60
2022/09/19 10:06:25;;;;;;;;;;;;;;;17.13;47.81;100666.06;5049559;28;1286;-57
2022/09/19 10:09:01;;;;;;;;;;;;;;;17.01;47.25;100665.56;5058485;28;1971;-61
2022/09/19 10:11:35;;;;;;;;;;;;;;;17.01;46.59;100671.06;5058686;28;1065;-61
2022/09/19 10:14:04;;;;;;;;;;;;;;;16.95;46.51;100673.00;5076702;28;1147;-59
2022/09/19 10:16:34;;;;;;;;;;;;;;;17.59;47.75;100660.38;5053452;28;1151;-61
2022/09/19 10:19:06;;;;;;;;;;;;;;;17.15;47.73;100654.81;5039707;28;2066;-58
2022/09/19 10:21:31;;;;;;;;;;;;;;;17.10;47.11;100655.66;5041935;28;1296;-60
2022/09/19 10:23:57;;;;;;;;;;;;;;;16.98;46.71;100647.72;5057962;28;1330;-58
2022/09/19 10:26:28;;;;;;;;;;;;;;;16.95;46.52;100648.28;5057429;28;1230;-59
2022/09/19 10:29:00;;;;;;;;;;;;;;;16.86;46.09;100649.94;5050997;28;1968;-60
2022/09/19 10:31:39;;;;;;;;;;;;;;;17.62;47.02;100653.50;5060380;28;1167;-59
2022/09/19 10:34:40;;;;;;;;;;;;;;;17.15;47.05;100649.31;5001353;28;1231;-58
2022/09/19 10:37:11;;;;;;;;;;;;;;;17.03;46.85;100650.44;5054349;28;1607;-58
2022/09/19 10:39:43;;;;;;;;;;;;;;;16.94;46.34;100643.88;5057862;28;2215;-59
2022/09/19 10:42:29;;;;;;;;;;;;;;;16.87;46.37;100655.13;5056910;28;1110;-58
2022/09/19 10:44:57;;;;;;;;;;;;;;;16.70;46.34;100646.38;5040759;28;1916;-57
2022/09/19 10:47:24;;;;;;;;;;;;;;;16.76;45.96;100656.28;5057650;28;1244;-59
2022/09/19 10:49:59;;;;;;;;;;;;;;;16.73;45.94;100643.91;5042082;28;1236;-58
2022/09/19 10:52:42;;;;;;;;;;;;;;;17.57;46.49;100656.25;5052745;28;1357;-60
2022/09/19 10:55:11;;;;;;;;;;;;;;;17.05;47.02;100640.00;5048299;28;1140;-60
2022/09/19 10:57:40;;;;;;;;;;;;;;;16.96;46.64;100630.69;5057773;28;1206;-60
2022/09/19 11:00:25;;;;;;;;;;;;;;;17.08;46.58;100639.44;5057618;28;1144;-58
2022/09/19 11:03:02;;;;;;;;;;;;;;;17.30;47.28;100635.50;5058117;28;1179;-58
2022/09/19 11:05:32;;;;;;;;;;;;;;;17.00;47.27;100634.53;5048548;28;1158;-62
2022/09/19 11:07:59;;;;;;;;;;;;;;;16.91;46.85;100630.69;5046536;28;1980;-62
2022/09/19 11:10:38;;;;;;;;;;;;;;;17.51;47.45;100632.66;5041464;28;1193;-58
2022/09/19 11:13:20;;;;;;;;;;;;;;;17.20;47.40;100619.06;5047287;28;1221;-59
2022/09/19 11:16:21;;;;;;;;;;;;;;;16.95;47.23;100625.47;5057373;28;1346;-58
2022/09/19 11:19:10;;;;;;;;;;;;;;;16.94;46.45;100621.91;4953150;28;1340;-58
2022/09/19 11:21:44;;;;;;;;;;;;;;;17.88;46.82;100626.66;5035702;28;1358;-60
2022/09/19 11:24:16;;;;;;;;;;;;;;;17.18;47.52;100616.59;5057547;28;1227;-60
2022/09/19 11:26:51;;;;;;;;;;;;;;;17.18;46.64;100618.50;5057234;28;1592;-59
2022/09/19 11:29:53;;;;;;;;;;;;;;;18.04;47.09;100618.31;5051348;28;1896;-59
2022/09/19 11:32:37;;;;;;;;;;;;;;;17.34;47.77;100606.34;4957780;28;1177;-59
2022/09/19 11:35:14;;;;;;;;;;;;;;;17.19;47.17;100609.19;5031069;28;2041;-61
2022/09/19 11:37:42;;;;;;;;;;;;;;;17.10;46.66;100607.00;5037604;28;1151;-61
2022/09/19 11:40:09;;;;;;;;;;;;;;;16.97;46.66;100606.78;5053303;28;1275;-61
2022/09/19 11:42:35;;;;;;;;;;;;;;;16.96;46.05;100608.72;5060403;28;1233;-59
2022/09/19 11:45:13;;;;;;;;;;;;;;;16.96;45.83;100599.63;5061163;28;1175;-59
2022/09/19 11:48:03;;;;;;;;;;;;;;;17.72;46.69;100595.66;5061648;28;1901;-59
2022/09/19 11:50:59;;;;;;;;;;;;;;;17.19;47.23;100588.00;5061503;28;1410;-60
2022/09/19 11:53:45;;;;;;;;;;;;;;;17.04;46.52;100583.44;5055310;28;1385;-60
2022/09/19 11:56:35;;;;;;;;;;;;;;;16.90;46.48;100585.09;5076189;28;1100;-60
2022/09/19 11:59:04;;;;;;;;;;;;;;;17.79;46.57;100587.09;5061363;28;1170;-60
2022/09/19 12:01:36;;;;;;;;;;;;;;;17.21;47.22;100585.81;5061610;28;1136;-60
2022/09/19 12:04:08;;;;;;;;;;;;;;;17.14;46.54;100587.22;5061111;28;1260;-61
2022/09/19 12:06:55;;;;;;;;;;;;;;;16.99;46.36;100580.69;5045490;28;1167;-58
2022/09/19 12:09:28;;;;;;;;;;;;;;;18.05;46.38;100581.44;5061687;28;1972;-59
2022/09/19 12:11:56;;;;;;;;;;;;;;;17.21;47.57;100585.00;5061310;28;1268;-59
2022/09/19 12:14:26;;;;;;;;;;;;;;;17.15;47.25;100591.59;5060719;28;1151;-60
2022/09/19 12:16:57;;;;;;;;;;;;;;;17.08;46.50;100587.25;5061273;28;1149;-59
2022/09/19 12:19:28;;;;;;;;;;;;;;;17.02;46.16;100591.09;5044529;28;2155;-61
2022/09/19 12:21:58;;;;;;;;;;;;;;;17.00;45.71;100590.59;5044739;28;1404;-61
2022/09/19 12:27:18;;;;;;;;;;;;;;;17.56;47.19;100583.16;5036790;28;1129;-60
2022/09/19 12:29:49;;;;;;;;;;;;;;;17.21;47.08;100577.56;5044266;28;1910;-60
2022/09/19 12:32:17;;;;;;;;;;;;;;;17.06;46.82;100570.22;5055639;28;1130;-62
2022/09/19 12:35:01;;;;;;;;;;;;;;;16.89;46.45;100570.56;5041749;28;1152;-60
2022/09/19 12:37:30;;;;;;;;;;;;;;;16.95;45.90;100571.38;5054500;28;1089;-61
2022/09/19 12:40:00;;;;;;;;;;;;;;;16.81;45.97;100573.03;5041208;28;1545;-62
2022/09/19 12:42:31;;;;;;;;;;;;;;;18.14;45.91;100565.94;5038043;28;1533;-62
2022/09/19 12:44:56;;;;;;;;;;;;;;;17.31;47.09;100571.19;5042984;28;1383;-64
2022/09/19 12:47:38;;;;;;;;;;;;;;;17.14;46.88;100565.22;5060797;28;1195;-63
2022/09/19 12:50:30;;;;;;;;;;;;;;;16.98;46.47;100557.06;5059669;28;1238;-65
2022/09/19 12:53:16;;;;;;;;;;;;;;;17.95;46.62;100558.41;5078438;28;1096;-58
2022/09/19 12:56:02;;;;;;;;;;;;;;;17.26;47.54;100568.47;5074516;28;1147;-62
2022/09/19 12:58:31;;;;;;;;;;;;;;;17.17;46.84;100568.25;5077109;28;1683;-57
2022/09/19 13:01:20;;;;;;;;;;;;;;;17.00;46.35;100565.84;5078337;28;1108;-58
2022/09/19 13:03:47;;;;;;;;;;;;;;;16.99;46.03;100568.88;5064866;28;1198;-59
2022/09/19 13:06:20;;;;;;;;;;;;;;;16.87;45.93;100566.41;5075178;28;1167;-57
2022/09/19 13:09:05;;;;;;;;;;;;;;;16.79;45.83;100567.00;5060526;28;1901;-55
2022/09/19 13:11:39;;;;;;;;;;;;;;;17.14;45.81;100573.47;5077918;28;1084;-65
2022/09/19 13:14:15;;;;;;;;;;;;;;;17.26;46.91;100572.06;5058771;28;1140;-58
2022/09/19 13:23:30;;;;;;;;;;;;;;;17.07;46.62;100568.31;5046887;28;1085;-57
2022/09/19 13:24:44;;;;;;;;;;;;;;;16.85;45.34;100552.16;5074969;28;1175;-58
2022/09/19 13:27:09;;;;;;;;;;;;;;;16.85;45.29;100552.97;5077090;28;1123;-58
2022/09/19 13:29:35;;;;;;;;;;;;;;;17.79;46.00;100556.84;5076811;28;1894;-57
2022/09/19 13:32:01;;;;;;;;;;;;;;;17.39;46.96;100556.84;5064488;28;1116;-59